Time;durP1;ratioP1;P1;durP2;ratioP2;P2;SDS_P1;SDS_P2;PMS_P1;PMS_P2;Temp;Humidity;BMP_temperature;BMP_pressure;BME280_temperature;BME280_humidity;BME280_pressure;Samples;Min_cycle;Max_cycle;Signal;HPM_P1;HPM_P2
2022/08/07 00:01:11;;;;;;;4.95;1.00;;;15.80;99.90;;;;;;2603838;54;20053;31
2022/08/07 00:04:06;;;;;;;3.80;0.77;;;15.90;99.90;;;;;;2621979;46;20214;31
2022/08/07 00:06:44;;;;;;;3.72;1.02;;;15.80;99.90;;;;;;2603678;54;20161;31
2022/08/07 00:09:25;;;;;;;4.57;0.93;;;15.80;99.90;;;;;;2603967;54;20856;31
2022/08/07 00:12:09;;;;;;;2.50;0.90;;;15.80;99.90;;;;;;2622248;46;20077;31
2022/08/07 00:14:44;;;;;;;3.42;1.52;;;15.80;99.90;;;;;;2603806;54;20038;31
2022/08/07 00:17:22;;;;;;;2.97;0.77;;;15.70;99.90;;;;;;2622145;46;20057;31
2022/08/07 00:20:00;;;;;;;8.30;0.90;;;15.80;99.90;;;;;;2702315;39;20509;31
2022/08/07 00:22:38;;;;;;;2.50;0.70;;;15.80;99.90;;;;;;2603889;54;20030;31
2022/08/07 00:25:15;;;;;;;4.68;1.67;;;15.80;99.90;;;;;;2603896;54;20882;31
2022/08/07 00:27:51;;;;;;;2.03;0.70;;;15.80;99.90;;;;;;2603834;54;20501;31
2022/08/07 00:30:29;;;;;;;3.22;0.70;;;15.70;99.90;;;;;;2622144;46;20060;31
2022/08/07 00:33:07;;;;;;;3.80;0.93;;;15.70;99.90;;;;;;2603585;54;20915;31
2022/08/07 00:35:42;;;;;;;2.95;0.90;;;15.70;99.90;;;;;;2603662;54;20026;31
2022/08/07 00:38:22;;;;;;;2.45;0.90;;;15.60;99.90;;;;;;2622535;46;20053;31
2022/08/07 00:41:04;;;;;;;3.53;1.25;;;15.70;99.90;;;;;;2621820;46;25126;31
2022/08/07 00:43:48;;;;;;;2.75;0.90;;;15.70;99.90;;;;;;2622697;46;19935;31
2022/08/07 00:46:35;;;;;;;2.25;0.57;;;15.60;99.90;;;;;;2603944;54;20030;31
2022/08/07 00:49:15;;;;;;;3.67;1.00;;;15.60;99.90;;;;;;2702218;39;20508;31
2022/08/07 00:52:11;;;;;;;1.58;0.50;;;15.50;99.90;;;;;;2622326;46;20053;31
2022/08/07 00:54:46;;;;;;;2.35;0.60;;;15.50;99.90;;;;;;2603709;54;20902;31
2022/08/07 00:57:27;;;;;;;2.60;0.73;;;15.40;99.90;;;;;;2603448;54;20121;31
2022/08/07 01:00:07;;;;;;;3.75;0.93;;;15.40;99.90;;;;;;2702401;39;22240;31
2022/08/07 01:02:45;;;;;;;3.33;0.85;;;15.30;99.90;;;;;;2603607;54;20089;31
2022/08/07 01:05:18;;;;;;;3.63;0.47;;;15.10;99.90;;;;;;2603761;54;20149;31
2022/08/07 01:08:00;;;;;;;5.10;1.15;;;15.10;99.90;;;;;;2603706;54;20072;31
2022/08/07 01:10:34;;;;;;;3.13;0.52;;;15.00;99.90;;;;;;2603732;54;20069;31
2022/08/07 01:13:09;;;;;;;5.70;1.05;;;15.00;99.90;;;;;;2603715;54;20600;31
2022/08/07 01:15:49;;;;;;;3.70;0.60;;;15.00;99.90;;;;;;2603521;54;20042;31
2022/08/07 01:18:39;;;;;;;1.70;0.55;;;14.90;99.90;;;;;;2603848;54;20889;31
2022/08/07 01:21:18;;;;;;;1.38;0.52;;;14.90;99.90;;;;;;2603927;54;20089;31
2022/08/07 01:24:00;;;;;;;1.15;0.60;;;14.90;99.90;;;;;;2603644;54;20029;31
2022/08/07 01:26:35;;;;;;;4.13;0.60;;;14.80;99.90;;;;;;2603267;54;20609;31
2022/08/07 01:29:11;;;;;;;2.08;0.80;;;14.80;99.90;;;;;;2622464;46;20863;31
2022/08/07 01:31:45;;;;;;;2.40;0.65;;;14.70;99.90;;;;;;2702140;39;21184;31
2022/08/07 01:34:21;;;;;;;4.28;0.65;;;14.70;99.90;;;;;;2603451;54;20050;31
2022/08/07 01:37:11;;;;;;;4.50;0.67;;;14.50;99.90;;;;;;2603700;54;20573;31
2022/08/07 01:39:47;;;;;;;5.88;1.10;;;14.50;99.90;;;;;;2603480;54;20141;31
2022/08/07 01:42:33;;;;;;;4.00;1.25;;;14.50;99.90;;;;;;2622305;46;20028;31
2022/08/07 01:45:28;;;;;;;3.50;0.95;;;14.50;99.90;;;;;;2603442;54;20085;31
2022/08/07 01:48:21;;;;;;;1.85;0.77;;;14.50;99.90;;;;;;2622102;46;20092;31
2022/08/07 01:51:07;;;;;;;3.70;1.00;;;14.50;99.90;;;;;;2603565;54;20026;31
2022/08/07 01:54:08;;;;;;;5.50;0.93;;;14.40;99.90;;;;;;2603588;54;20022;31
2022/08/07 01:57:03;;;;;;;3.90;0.90;;;14.40;99.90;;;;;;2603269;54;19935;31
2022/08/07 01:59:44;;;;;;;6.55;1.20;;;14.30;99.90;;;;;;2720150;39;20474;31
2022/08/07 02:02:37;;;;;;;3.35;1.00;;;14.30;99.90;;;;;;2603427;54;20897;31
2022/08/07 02:08:29;;;;;;;3.87;1.00;;;14.30;99.90;;;;;;2603306;54;20027;31
2022/08/07 02:11:07;;;;;;;2.67;1.08;;;14.30;99.90;;;;;;2621994;46;20903;31
2022/08/07 02:14:02;;;;;;;1.40;0.80;;;14.20;99.90;;;;;;2701789;39;21443;31
2022/08/07 02:16:40;;;;;;;2.83;1.40;;;14.10;99.90;;;;;;2603235;54;20238;31
2022/08/07 02:19:15;;;;;;;4.10;1.02;;;14.10;99.90;;;;;;2603324;54;20061;31
2022/08/07 02:22:10;;;;;;;1.85;0.90;;;14.10;99.90;;;;;;2603261;54;20050;31
2022/08/07 02:24:46;;;;;;;2.55;1.00;;;14.10;99.90;;;;;;2603509;54;20038;31
2022/08/07 02:27:23;;;;;;;1.17;0.50;;;14.00;99.90;;;;;;2702059;39;21050;31
2022/08/07 02:29:58;;;;;;;2.60;0.70;;;14.00;99.90;;;;;;2603319;54;20105;31
2022/08/07 02:32:40;;;;;;;2.17;0.77;;;14.00;99.90;;;;;;2603416;54;20073;31
2022/08/07 02:35:39;;;;;;;3.47;0.98;;;14.00;99.90;;;;;;2603404;54;20577;31
2022/08/07 02:38:37;;;;;;;2.95;0.80;;;14.00;99.90;;;;;;2603353;54;21814;31
2022/08/07 02:41:12;;;;;;;2.65;0.75;;;14.00;99.90;;;;;;2603189;54;20033;31
2022/08/07 02:43:58;;;;;;;3.97;1.15;;;14.00;99.90;;;;;;2701779;39;20615;31
2022/08/07 02:46:34;;;;;;;5.70;1.42;;;14.00;99.90;;;;;;2603500;54;20913;31
2022/08/07 02:49:23;;;;;;;3.70;1.23;;;13.90;99.90;;;;;;2603133;54;20030;31
2022/08/07 02:52:21;;;;;;;4.07;1.20;;;13.80;99.90;;;;;;2603389;54;20038;31
2022/08/07 02:55:09;;;;;;;4.78;1.52;;;13.70;99.90;;;;;;2622153;47;20022;31
2022/08/07 02:58:04;;;;;;;4.38;1.10;;;13.70;99.90;;;;;;2622858;46;20846;31
2022/08/07 03:00:47;;;;;;;3.70;0.80;;;13.60;99.90;;;;;;2603889;54;20033;31
2022/08/07 03:03:23;;;;;;;3.53;0.93;;;13.60;99.90;;;;;;2603990;54;20941;31
2022/08/07 03:06:02;;;;;;;2.67;1.00;;;13.50;99.90;;;;;;2604050;54;20157;31
2022/08/07 03:08:50;;;;;;;2.40;1.10;;;13.50;99.90;;;;;;2702639;39;20580;31
2022/08/07 03:11:25;;;;;;;6.85;1.35;;;13.50;99.90;;;;;;2603869;54;20112;31
2022/08/07 03:14:03;;;;;;;4.72;1.33;;;13.40;99.90;;;;;;2603927;54;20074;31
2022/08/07 03:16:41;;;;;;;3.13;0.90;;;13.30;99.90;;;;;;2622585;46;20049;31
2022/08/07 03:19:16;;;;;;;4.75;1.30;;;13.20;99.90;;;;;;2622763;46;21100;31
2022/08/07 03:21:53;;;;;;;3.85;0.88;;;13.10;99.90;;;;;;2603987;54;20925;31
2022/08/07 03:24:29;;;;;;;3.60;0.85;;;13.10;99.90;;;;;;2604176;54;20046;31
2022/08/07 03:27:08;;;;;;;1.67;0.75;;;13.10;99.90;;;;;;2603972;54;20970;31
2022/08/07 03:29:48;;;;;;;3.15;1.45;;;13.10;99.90;;;;;;2603798;54;20026;31
2022/08/07 03:32:32;;;;;;;1.85;0.93;;;13.00;99.90;;;;;;2603953;54;20034;31
2022/08/07 03:35:09;;;;;;;3.05;0.80;;;13.00;99.90;;;;;;2603892;54;20030;31
2022/08/07 03:37:55;;;;;;;2.30;1.00;;;13.00;99.90;;;;;;2603720;54;20049;31
2022/08/07 03:40:34;;;;;;;3.42;0.90;;;13.00;99.90;;;;;;2622602;46;20022;31
2022/08/07 03:43:19;;;;;;;2.30;1.00;;;13.00;99.90;;;;;;2702580;39;20549;31
2022/08/07 03:46:00;;;;;;;4.85;1.20;;;13.00;99.90;;;;;;2603903;54;20033;31
2022/08/07 03:48:39;;;;;;;3.15;1.30;;;12.90;99.90;;;;;;2603735;54;20087;31
2022/08/07 03:51:35;;;;;;;4.50;1.17;;;12.90;99.90;;;;;;2603842;54;20022;31
2022/08/07 03:54:24;;;;;;;3.45;1.30;;;12.80;99.90;;;;;;2604013;54;20047;31
2022/08/07 03:57:18;;;;;;;4.13;1.40;;;12.80;99.90;;;;;;2702456;39;20557;31
2022/08/07 04:00:14;;;;;;;1.67;1.02;;;12.90;99.90;;;;;;2622501;46;20907;31
2022/08/07 04:02:47;;;;;;;4.72;1.20;;;13.00;99.90;;;;;;2603892;54;20053;31
2022/08/07 04:05:40;;;;;;;3.00;0.98;;;13.10;99.90;;;;;;2603602;54;20046;31
2022/08/07 04:08:25;;;;;;;2.80;1.33;;;13.20;99.90;;;;;;2603932;54;20045;31
2022/08/07 04:10:57;;;;;;;4.05;1.20;;;13.30;99.90;;;;;;2702431;39;21094;31
2022/08/07 04:13:55;;;;;;;1.80;0.95;;;13.50;99.90;;;;;;2603941;54;20035;31
2022/08/07 04:16:51;;;;;;;2.25;1.40;;;13.70;99.90;;;;;;2603616;54;20605;31
2022/08/07 04:19:33;;;;;;;5.35;1.40;;;13.90;99.90;;;;;;2622316;46;20026;31
2022/08/07 04:22:29;;;;;;;7.70;1.20;;;14.10;99.90;;;;;;2792628;31;22312;31
2022/08/07 04:25:10;;;;;;;2.83;1.08;;;14.30;99.90;;;;;;2603629;54;20876;31
2022/08/07 04:27:50;;;;;;;4.03;1.17;;;14.60;99.90;;;;;;2603731;54;20858;31
2022/08/07 04:30:37;;;;;;;3.13;1.53;;;14.80;99.90;;;;;;2603754;54;20815;31
2022/08/07 04:33:35;;;;;;;3.35;0.93;;;15.00;99.90;;;;;;2603712;54;20027;31
2022/08/07 04:36:10;;;;;;;3.60;1.33;;;15.20;99.90;;;;;;2603509;54;20089;31
2022/08/07 04:38:49;;;;;;;2.25;1.00;;;15.40;99.90;;;;;;2622289;46;20030;31
2022/08/07 04:41:26;;;;;;;6.00;1.40;;;15.60;99.90;;;;;;2603664;54;20894;31
2022/08/07 04:44:10;;;;;;;;;;;15.80;99.90;;;;;;2603689;54;21197;31
2022/08/07 04:46:52;;;;;;;3.63;1.27;;;16.00;99.90;;;;;;2603669;54;19935;31
2022/08/07 04:49:46;;;;;;;5.95;1.60;;;16.20;99.90;;;;;;2603604;54;19961;31
2022/08/07 04:52:41;;;;;;;3.30;1.17;;;16.50;99.90;;;;;;2603679;54;20027;31
2022/08/07 04:55:32;;;;;;;3.65;1.42;;;16.80;99.90;;;;;;2603721;54;20353;31
2022/08/07 04:58:27;;;;;;;5.10;1.17;;;17.00;99.90;;;;;;2622066;46;20053;31
2022/08/07 05:01:26;;;;;;;4.05;1.73;;;17.30;99.90;;;;;;2603538;54;20026;31
2022/08/07 05:04:09;;;;;;;3.03;1.25;;;17.40;99.90;;;;;;2603813;54;20032;31
2022/08/07 05:06:51;;;;;;;4.10;1.08;;;17.70;99.90;;;;;;2621828;46;20831;31
2022/08/07 05:09:31;;;;;;;2.95;1.00;;;17.90;99.90;;;;;;2622402;46;20876;31
2022/08/07 05:12:26;;;;;;;4.82;0.88;;;18.20;99.90;;;;;;2603834;54;20081;31
2022/08/07 05:15:15;;;;;;;3.58;0.88;;;18.50;99.90;;;;;;2603602;54;20026;31
2022/08/07 05:18:04;;;;;;;10.20;1.30;;;18.70;99.90;;;;;;2603247;54;20753;31
2022/08/07 05:20:48;;;;;;;3.40;0.90;;;18.90;99.90;;;;;;2603539;54;20033;31
2022/08/07 05:23:24;;;;;;;3.60;1.20;;;19.10;99.90;;;;;;2603671;54;20149;31
2022/08/07 05:26:06;;;;;;;4.55;1.00;;;19.30;99.90;;;;;;2603471;54;20121;31
2022/08/07 05:28:54;;;;;;;3.25;1.00;;;19.50;99.90;;;;;;2622286;46;20026;31
2022/08/07 05:31:37;;;;;;;2.47;0.90;;;19.80;99.90;;;;;;2603534;54;20728;31
2022/08/07 05:34:18;;;;;;;1.80;0.90;;;19.90;99.90;;;;;;2622153;46;20027;31
2022/08/07 05:36:59;;;;;;;1.70;0.90;;;20.10;99.90;;;;;;2603669;54;20026;31
2022/08/07 05:39:44;;;;;;;2.70;0.95;;;20.20;99.90;;;;;;2603474;54;20023;31
2022/08/07 05:42:38;;;;;;;2.58;0.90;;;20.40;99.90;;;;;;2603483;54;20089;31
2022/08/07 05:45:20;;;;;;;5.83;1.97;;;20.70;99.90;;;;;;2603495;54;20042;31
2022/08/07 05:48:16;;;;;;;8.15;1.25;;;20.80;99.90;;;;;;2603500;54;20943;31
2022/08/07 05:50:59;;;;;;;3.40;0.90;;;20.90;99.90;;;;;;2603397;54;20026;31
2022/08/07 05:53:38;;;;;;;4.57;1.08;;;21.10;99.90;;;;;;2622076;46;20053;31
2022/08/07 05:56:33;;;;;;;4.93;1.20;;;21.30;99.90;;;;;;2603515;54;20050;31
2022/08/07 05:59:11;;;;;;;4.30;0.95;;;21.40;99.90;;;;;;2603506;54;20034;31
2022/08/07 06:01:48;;;;;;;2.00;0.73;;;21.50;99.90;;;;;;2773619;31;21166;31
2022/08/07 06:04:25;;;;;;;4.35;1.00;;;21.60;99.90;;;;;;2603437;54;20093;31
2022/08/07 06:07:06;;;;;;;3.33;0.80;;;21.80;99.90;;;;;;2603449;54;20034;31
2022/08/07 06:09:47;;;;;;;3.30;0.90;;;22.00;99.90;;;;;;2622052;46;20026;31
2022/08/07 06:12:40;;;;;;;3.35;0.75;;;22.10;99.90;;;;;;2603448;54;20026;31
2022/08/07 06:15:16;;;;;;;0.88;0.50;;;22.30;99.90;;;;;;2603330;54;20771;31
2022/08/07 06:17:58;;;;;;;2.72;0.82;;;22.50;99.90;;;;;;2603561;54;20149;31
2022/08/07 06:20:34;;;;;;;2.80;0.90;;;22.80;99.90;;;;;;2603639;54;20053;31
2022/08/07 06:23:31;;;;;;;4.05;1.10;;;22.90;99.90;;;;;;2603582;54;19938;31
2022/08/07 06:26:28;;;;;;;1.83;0.80;;;23.00;99.90;;;;;;2603523;54;20038;31
2022/08/07 06:29:06;;;;;;;2.00;0.90;;;23.00;99.90;;;;;;2603278;54;20034;31
2022/08/07 06:31:40;;;;;;;2.78;0.85;;;23.20;99.90;;;;;;2603337;54;20132;31
2022/08/07 06:34:30;;;;;;;5.43;1.20;;;23.50;99.90;;;;;;2603343;54;20042;31
2022/08/07 06:37:06;;;;;;;3.23;0.83;;;23.60;99.90;;;;;;2603334;54;20033;31
2022/08/07 06:39:45;;;;;;;2.10;1.00;;;23.80;99.90;;;;;;2603166;54;20136;31
2022/08/07 06:42:40;;;;;;;4.10;0.80;;;23.90;99.90;;;;;;2603192;54;25062;31
2022/08/07 06:45:33;;;;;;;3.45;0.98;;;24.10;99.90;;;;;;2603425;54;20023;31
2022/08/07 06:48:10;;;;;;;3.00;0.93;;;24.30;99.90;;;;;;2621544;46;20022;31
2022/08/07 06:50:53;;;;;;;3.90;1.00;;;24.40;99.90;;;;;;2603476;54;19942;31
2022/08/07 06:53:29;;;;;;;4.05;0.65;;;24.70;99.90;;;;;;2622121;47;20023;31
2022/08/07 06:59:28;;;;;;;3.42;0.90;;;25.10;99.90;;;;;;2603214;54;20046;31
2022/08/07 07:02:26;;;;;;;;;;;25.10;99.90;;;;;;2603434;54;20027;31
2022/08/07 07:05:22;;;;;;;2.85;0.68;;;25.10;99.90;;;;;;2603217;54;19952;31
2022/08/07 07:08:27;;;;;;;1.85;0.65;;;25.20;99.90;;;;;;2621855;47;20938;31
2022/08/07 07:11:03;;;;;;;3.30;0.70;;;25.20;99.90;;;;;;2603183;54;20031;31
2022/08/07 07:14:03;;;;;;;3.92;0.80;;;25.40;99.90;;;;;;2621231;47;20061;31
2022/08/07 07:16:41;;;;;;;3.33;0.57;;;25.50;99.90;;;;;;2603355;54;20049;31
2022/08/07 07:19:27;;;;;;;2.10;0.70;;;25.60;99.90;;;;;;2603186;54;19950;31
2022/08/07 07:22:22;;;;;;;3.10;0.60;;;25.90;99.90;;;;;;2603213;54;20889;31
2022/08/07 07:25:19;;;;;;;2.17;0.60;;;26.00;99.90;;;;;;2603219;54;20030;31
2022/08/07 07:28:18;;;;;;;2.20;0.63;;;26.20;99.90;;;;;;2603172;54;20986;31
2022/08/07 07:31:15;;;;;;;2.00;0.40;;;26.00;97.80;;;;;;2603075;54;20031;31
2022/08/07 07:33:56;;;;;;;1.10;0.50;;;26.10;97.80;;;;;;2603176;54;20123;31
2022/08/07 07:36:31;;;;;;;2.50;0.40;;;26.20;96.70;;;;;;2603162;54;20113;31
2022/08/07 07:39:08;;;;;;;1.45;0.40;;;26.40;96.40;;;;;;2603323;54;20022;31
2022/08/07 07:41:47;;;;;;;2.38;0.60;;;26.50;94.40;;;;;;2604018;54;20109;31
2022/08/07 07:44:43;;;;;;;1.00;0.30;;;26.60;94.50;;;;;;2603924;54;20034;31
2022/08/07 07:47:22;;;;;;;4.57;0.73;;;26.80;94.50;;;;;;2604022;54;20027;31
2022/08/07 07:49:58;;;;;;;2.47;0.55;;;26.90;93.50;;;;;;2603945;54;20022;31
2022/08/07 07:52:52;;;;;;;0.90;0.40;;;27.00;92.60;;;;;;2603967;54;20042;31
2022/08/07 07:55:29;;;;;;;1.70;0.50;;;27.00;92.60;;;;;;2622440;46;20026;31
2022/08/07 07:58:21;;;;;;;1.55;0.40;;;27.20;91.60;;;;;;2603847;54;20085;31
2022/08/07 08:01:02;;;;;;;2.55;0.60;;;27.20;92.10;;;;;;2609069;46;20077;31
2022/08/07 08:03:54;;;;;;;1.80;0.50;;;27.20;90.80;;;;;;2603866;54;21781;31
2022/08/07 08:06:44;;;;;;;4.65;0.55;;;27.40;91.00;;;;;;2603936;54;20865;31
2022/08/07 08:09:25;;;;;;;2.58;0.50;;;27.50;91.00;;;;;;2603975;54;20019;31
2022/08/07 08:12:02;;;;;;;2.90;0.50;;;27.50;90.00;;;;;;2603806;54;20819;31
2022/08/07 08:14:42;;;;;;;4.27;0.80;;;27.50;89.80;;;;;;2604090;54;20081;31
2022/08/07 08:17:18;;;;;;;1.45;0.40;;;27.60;88.80;;;;;;2602928;54;20858;31
2022/08/07 08:20:14;;;;;;;2.05;0.35;;;27.60;88.80;;;;;;2603638;54;20050;31
2022/08/07 08:28:46;;;;;;;2.53;0.47;;;27.70;85.30;;;;;;2603751;54;20068;31
2022/08/07 08:31:32;;;;;;;3.40;0.57;;;27.50;79.90;;;;;;2603640;54;20838;31
2022/08/07 08:34:37;;;;;;;2.22;0.60;;;27.60;83.60;;;;;;2622444;46;20023;31
2022/08/07 08:37:13;;;;;;;1.65;0.30;;;27.80;84.40;;;;;;2603784;54;20025;31
2022/08/07 08:40:11;;;;;;;3.20;0.40;;;27.80;82.20;;;;;;2603622;54;20099;31
2022/08/07 08:42:58;;;;;;;1.23;0.35;;;27.80;85.00;;;;;;2603577;54;20034;31
2022/08/07 08:45:37;;;;;;;4.22;0.82;;;27.90;82.30;;;;;;2603726;54;20042;31
2022/08/07 08:48:30;;;;;;;3.80;0.50;;;28.00;83.30;;;;;;2603762;54;20038;31
2022/08/07 08:51:14;;;;;;;1.42;0.50;;;27.90;83.20;;;;;;2603575;54;20031;31
2022/08/07 08:54:11;;;;;;;0.70;0.30;;;28.00;82.40;;;;;;2603729;54;20090;31
2022/08/07 08:56:49;;;;;;;1.98;0.50;;;28.10;82.10;;;;;;2603575;54;20034;31
2022/08/07 08:59:28;;;;;;;2.53;0.65;;;28.30;82.50;;;;;;2603492;54;20030;31
2022/08/07 09:02:31;;;;;;;5.15;0.60;;;28.40;80.60;;;;;;2603677;54;20026;31
2022/08/07 09:05:25;;;;;;;2.60;0.67;;;28.40;81.40;;;;;;2603430;54;20834;31
2022/08/07 09:08:21;;;;;;;1.60;0.50;;;28.50;79.00;;;;;;2603541;54;20279;31
2022/08/07 09:11:12;;;;;;;2.92;0.57;;;28.50;79.30;;;;;;2603791;54;20117;31
2022/08/07 09:14:04;;;;;;;1.45;0.30;;;28.40;80.50;;;;;;2603546;54;20839;31
2022/08/07 09:16:47;;;;;;;3.20;0.73;;;28.30;77.90;;;;;;2603570;54;20105;31
2022/08/07 09:19:28;;;;;;;2.25;0.60;;;28.20;79.80;;;;;;2622150;46;20026;31
2022/08/07 09:22:36;;;;;;;3.15;0.80;;;28.20;79.20;;;;;;2603741;54;20027;31
2022/08/07 09:25:41;;;;;;;1.88;0.50;;;28.20;78.20;;;;;;2603532;54;20030;31
2022/08/07 09:28:31;;;;;;;1.20;0.50;;;28.30;77.90;;;;;;2603554;54;20030;31
2022/08/07 09:31:33;;;;;;;5.22;0.50;;;28.40;79.20;;;;;;2603597;54;20910;31
2022/08/07 09:34:15;;;;;;;2.20;0.70;;;28.40;78.10;;;;;;2621985;46;20081;31
2022/08/07 09:36:56;;;;;;;1.83;0.60;;;28.30;77.40;;;;;;2603776;54;20039;31
2022/08/07 09:39:41;;;;;;;3.35;0.68;;;28.30;77.50;;;;;;2603651;54;20053;31
2022/08/07 09:42:40;;;;;;;3.60;0.50;;;28.30;78.40;;;;;;2603607;54;20033;31
2022/08/07 09:45:19;;;;;;;1.25;0.80;;;28.30;77.70;;;;;;2603828;54;20034;31
2022/08/07 09:48:29;;;;;;;1.60;0.65;;;28.20;74.40;;;;;;2603529;54;20918;31
2022/08/07 09:51:35;;;;;;;1.70;0.70;;;28.20;75.00;;;;;;2622157;46;20066;31
2022/08/07 09:54:35;;;;;;;1.33;0.50;;;28.10;75.20;;;;;;2603409;54;21024;31
2022/08/07 09:57:31;;;;;;;4.00;0.85;;;28.20;76.90;;;;;;2603294;54;20027;31
2022/08/07 10:00:19;;;;;;;1.20;0.50;;;28.10;74.90;;;;;;2603654;54;20031;31
2022/08/07 10:03:15;;;;;;;1.40;0.50;;;28.00;75.90;;;;;;2603358;54;20022;31
2022/08/07 10:06:19;;;;;;;2.65;0.60;;;28.10;76.80;;;;;;2603473;54;20022;31
2022/08/07 10:09:18;;;;;;;1.27;0.40;;;28.20;77.30;;;;;;2603505;54;20046;31
2022/08/07 10:12:11;;;;;;;2.85;0.60;;;28.50;76.00;;;;;;2603633;54;20848;31
2022/08/07 10:15:11;;;;;;;3.38;0.50;;;28.60;75.80;;;;;;2603670;54;20862;31
2022/08/07 10:18:01;;;;;;;1.73;0.43;;;28.80;74.40;;;;;;2603510;54;20065;31
2022/08/07 10:20:41;;;;;;;1.95;0.90;;;28.70;76.20;;;;;;2603269;54;19934;31
2022/08/07 10:23:33;;;;;;;1.25;0.55;;;28.60;75.50;;;;;;2603732;54;20148;31
2022/08/07 10:26:38;;;;;;;1.33;0.40;;;28.20;74.70;;;;;;2603421;54;20033;31
2022/08/07 10:29:27;;;;;;;1.90;0.47;;;27.60;75.80;;;;;;2603560;54;20041;31
2022/08/07 10:32:17;;;;;;;1.77;0.52;;;27.10;76.90;;;;;;2603466;54;20029;31
2022/08/07 10:35:18;;;;;;;3.95;0.70;;;26.70;78.00;;;;;;2603381;54;20871;31
2022/08/07 10:38:01;;;;;;;1.60;0.50;;;26.60;79.00;;;;;;2622022;46;20876;31
2022/08/07 10:41:02;;;;;;;2.85;0.60;;;26.60;79.80;;;;;;2603247;54;20026;31
2022/08/07 10:43:37;;;;;;;2.38;0.82;;;26.30;80.50;;;;;;2603338;54;20026;31
2022/08/07 10:46:15;;;;;;;1.90;0.60;;;26.00;79.10;;;;;;2603376;54;20030;31
2022/08/07 10:48:59;;;;;;;0.90;0.50;;;25.90;80.70;;;;;;2603371;54;20030;31
2022/08/07 10:51:38;;;;;;;1.00;0.40;;;25.80;78.90;;;;;;2603330;54;20046;31
2022/08/07 10:54:37;;;;;;;1.80;0.50;;;25.70;78.50;;;;;;2603374;54;20034;31
2022/08/07 10:57:15;;;;;;;1.40;0.55;;;25.60;77.70;;;;;;2603446;54;20262;31
2022/08/07 11:00:10;;;;;;;3.30;0.77;;;25.80;79.40;;;;;;2603449;54;20804;31
2022/08/07 11:03:01;;;;;;;1.20;0.50;;;25.90;78.70;;;;;;2720735;39;22281;31
2022/08/07 11:05:47;;;;;;;1.70;0.60;;;26.10;77.40;;;;;;2603503;54;20026;31
2022/08/07 11:08:34;;;;;;;1.10;0.40;;;26.30;78.90;;;;;;2603316;54;20057;31
2022/08/07 11:11:14;;;;;;;1.05;0.60;;;26.40;77.50;;;;;;2603144;54;20117;31
2022/08/07 11:13:52;;;;;;;4.75;0.55;;;26.60;77.70;;;;;;2603160;54;20062;31
2022/08/07 11:16:49;;;;;;;1.55;0.60;;;26.40;78.80;;;;;;2604058;54;20834;31
2022/08/07 11:19:33;;;;;;;1.38;0.70;;;26.20;78.60;;;;;;2604212;54;21842;31
2022/08/07 11:22:11;;;;;;;1.60;0.70;;;25.90;77.70;;;;;;2603971;54;20042;31
2022/08/07 11:25:04;;;;;;;1.17;0.83;;;25.70;77.40;;;;;;2603950;54;20097;31
2022/08/07 11:27:50;;;;;;;1.75;0.50;;;25.70;77.90;;;;;;2603950;54;20042;31
2022/08/07 11:30:42;;;;;;;1.88;0.63;;;25.90;78.40;;;;;;2622623;46;20033;31
2022/08/07 11:33:23;;;;;;;2.42;0.70;;;25.90;77.90;;;;;;2604395;54;20798;31
2022/08/07 11:36:40;;;;;;;1.03;0.70;;;25.90;78.30;;;;;;2603969;54;20018;31
2022/08/07 11:39:13;;;;;;;1.95;0.63;;;26.00;78.60;;;;;;2622838;46;20864;31
2022/08/07 11:41:57;;;;;;;1.55;0.70;;;26.00;77.80;;;;;;2604064;54;20909;31
2022/08/07 11:44:44;;;;;;;2.15;0.60;;;26.10;76.70;;;;;;2604127;54;20047;31
2022/08/07 11:47:32;;;;;;;0.60;0.40;;;26.00;79.10;;;;;;2622726;46;20043;31
2022/08/07 11:50:34;;;;;;;1.63;0.50;;;26.00;77.00;;;;;;2603918;54;20022;31
2022/08/07 11:53:21;;;;;;;1.00;0.40;;;25.90;77.20;;;;;;2604057;54;20026;31
2022/08/07 11:56:07;;;;;;;3.47;0.70;;;25.90;77.50;;;;;;2603703;54;20762;31
2022/08/07 11:59:09;;;;;;;1.10;0.50;;;25.90;78.60;;;;;;2603835;54;20022;31
2022/08/07 12:02:14;;;;;;;1.73;0.50;;;25.80;78.90;;;;;;2603804;54;20026;31
2022/08/07 12:05:10;;;;;;;1.60;0.50;;;25.90;80.30;;;;;;2603815;54;20026;31
2022/08/07 12:07:53;;;;;;;2.60;0.63;;;25.90;79.30;;;;;;2604076;54;20045;31
2022/08/07 12:10:39;;;;;;;3.28;0.70;;;25.90;78.20;;;;;;2603834;54;20057;31
2022/08/07 12:13:18;;;;;;;2.58;0.70;;;25.90;77.20;;;;;;2603687;54;20089;31
2022/08/07 12:16:15;;;;;;;1.60;0.70;;;25.70;78.70;;;;;;2604135;54;20027;31
2022/08/07 12:19:21;;;;;;;1.60;0.60;;;25.70;79.00;;;;;;2603994;54;20132;31
2022/08/07 12:22:00;;;;;;;2.38;0.75;;;25.70;78.80;;;;;;2603748;54;20816;31
2022/08/07 12:28:06;;;;;;;1.05;0.50;;;25.70;79.60;;;;;;2603598;54;20042;31
2022/08/07 12:30:44;;;;;;;2.35;0.70;;;25.70;79.20;;;;;;2603867;54;20038;31
2022/08/07 12:33:28;;;;;;;1.13;0.60;;;25.60;79.10;;;;;;2603826;54;20033;31
2022/08/07 12:36:26;;;;;;;1.70;0.60;;;25.50;77.90;;;;;;2603711;54;20057;31
2022/08/07 12:39:07;;;;;;;1.20;0.50;;;25.50;78.30;;;;;;2603798;54;20105;31
2022/08/07 12:42:01;;;;;;;1.00;0.60;;;25.50;78.00;;;;;;2621910;46;20153;31
2022/08/07 12:44:41;;;;;;;2.00;0.70;;;25.50;77.60;;;;;;2603947;54;20030;31
2022/08/07 12:47:23;;;;;;;1.63;0.60;;;25.50;78.40;;;;;;2603670;54;20057;31
2022/08/07 12:50:07;;;;;;;3.25;0.70;;;25.50;78.20;;;;;;2603920;54;20238;31
2022/08/07 12:53:04;;;;;;;1.15;0.70;;;25.50;77.70;;;;;;2603685;54;20026;31
2022/08/07 12:56:03;;;;;;;1.77;0.77;;;25.40;77.30;;;;;;2603885;54;20089;31
2022/08/07 12:58:48;;;;;;;1.48;0.60;;;25.30;77.20;;;;;;2603718;54;20018;31
2022/08/07 13:01:36;;;;;;;3.08;0.70;;;25.30;77.90;;;;;;2603835;54;20026;31
2022/08/07 13:04:35;;;;;;;0.80;0.50;;;25.20;79.30;;;;;;2603674;54;20033;31
2022/08/07 13:07:43;;;;;;;1.63;0.50;;;25.10;78.10;;;;;;2702341;39;21014;31
2022/08/07 13:10:49;;;;;;;1.50;0.50;;;25.10;77.20;;;;;;2603637;54;20049;31
2022/08/07 13:13:37;;;;;;;3.85;0.60;;;25.00;76.90;;;;;;2622058;46;20048;31
2022/08/07 13:16:28;;;;;;;1.42;0.50;;;24.90;76.80;;;;;;2603493;54;20029;31
2022/08/07 13:19:10;;;;;;;1.00;0.47;;;24.80;77.30;;;;;;2603706;54;20065;31
2022/08/07 13:22:02;;;;;;;0.70;0.40;;;24.80;76.90;;;;;;2603754;54;20057;31
2022/08/07 13:25:00;;;;;;;1.23;0.57;;;24.80;77.90;;;;;;2622043;46;20034;31
2022/08/07 13:27:38;;;;;;;2.97;0.60;;;24.80;78.50;;;;;;2603599;54;20097;31
2022/08/07 13:30:36;;;;;;;0.68;0.50;;;24.80;78.90;;;;;;2603585;54;20851;31
2022/08/07 13:33:21;;;;;;;1.00;0.50;;;24.70;79.50;;;;;;2603540;54;20042;31
2022/08/07 13:36:18;;;;;;;1.50;0.50;;;24.70;79.10;;;;;;2603656;54;20061;31
2022/08/07 13:39:03;;;;;;;1.25;0.60;;;24.60;78.40;;;;;;2603537;54;20026;31
2022/08/07 13:41:52;;;;;;;2.00;0.60;;;24.60;79.50;;;;;;2622198;46;20027;31
2022/08/07 13:44:27;;;;;;;1.45;0.60;;;24.60;79.60;;;;;;2603724;54;20038;31
2022/08/07 13:47:13;;;;;;;4.47;0.70;;;24.60;79.10;;;;;;2603631;54;20105;31
2022/08/07 13:50:01;;;;;;;1.17;0.50;;;24.60;77.50;;;;;;2603454;54;20250;31
2022/08/07 13:52:57;;;;;;;2.67;0.52;;;24.60;81.00;;;;;;2603501;54;20958;31
2022/08/07 13:55:32;;;;;;;2.95;0.40;;;24.60;79.40;;;;;;2603614;54;20037;31
2022/08/07 14:01:11;;;;;;;1.50;0.40;;;24.60;79.00;;;;;;2603465;54;20132;31
2022/08/07 14:03:50;;;;;;;1.08;0.80;;;24.70;78.20;;;;;;2603467;54;19941;31
2022/08/07 14:06:43;;;;;;;2.55;0.40;;;24.60;79.40;;;;;;2603507;54;20026;31
2022/08/07 14:09:25;;;;;;;2.25;0.50;;;24.70;78.60;;;;;;2621735;46;20033;31
2022/08/07 14:12:25;;;;;;;3.57;0.60;;;24.60;77.70;;;;;;2603453;54;20026;31
2022/08/07 14:15:03;;;;;;;1.75;0.45;;;24.60;75.90;;;;;;2603728;54;20880;31
2022/08/07 14:17:40;;;;;;;1.00;0.43;;;24.50;76.60;;;;;;2603861;54;20030;31
2022/08/07 14:23:26;;;;;;;8.80;1.20;;;24.40;78.50;;;;;;2603444;54;20105;31
2022/08/07 14:26:24;;;;;;;1.00;0.40;;;24.40;77.60;;;;;;2621771;46;20872;31
2022/08/07 14:29:07;;;;;;;4.50;0.40;;;24.40;78.10;;;;;;2603394;54;20026;31
2022/08/07 14:32:02;;;;;;;0.75;0.45;;;24.40;79.00;;;;;;2603393;54;20034;31
2022/08/07 14:34:41;;;;;;;5.25;0.60;;;24.40;79.50;;;;;;2621313;46;20093;31
2022/08/07 14:37:19;;;;;;;1.25;0.60;;;24.40;79.00;;;;;;2602894;54;20030;31
2022/08/07 14:40:11;;;;;;;1.77;0.60;;;24.40;78.00;;;;;;2600634;54;20886;31
2022/08/07 14:43:04;;;;;;;1.92;0.50;;;24.30;78.60;;;;;;2601574;54;20061;31
2022/08/07 14:46:00;;;;;;;1.45;0.60;;;24.30;80.30;;;;;;2621862;46;20029;31
2022/08/07 14:48:38;;;;;;;1.08;0.50;;;24.30;78.60;;;;;;2603029;54;20105;31
2022/08/07 14:51:14;;;;;;;1.40;0.50;;;24.20;78.60;;;;;;2603284;54;20033;31
2022/08/07 14:53:51;;;;;;;1.60;0.40;;;24.30;79.00;;;;;;2602881;54;20039;31
2022/08/07 14:56:45;;;;;;;0.77;0.30;;;24.20;79.60;;;;;;2602486;54;19957;31
2022/08/07 14:59:26;;;;;;;1.07;0.30;;;24.20;78.20;;;;;;2601029;54;20058;31